Time;durP1;ratioP1;P1;durP2;ratioP2;P2;SDS_P1;SDS_P2;PMS_P1;PMS_P2;Temp;Humidity;BMP_temperature;BMP_pressure;BME280_temperature;BME280_humidity;BME280_pressure;Samples;Min_cycle;Max_cycle;Signal;HPM_P1;HPM_P2
2022/02/02 00:00:51;;;;;;;9.38;3.75;;;;;;;13.02;38.44;100199.81;4940471;29;20051;-78
2022/02/02 00:03:36;;;;;;;7.65;2.60;;;;;;;13.01;36.69;100187.28;4949404;28;20054;-78
2022/02/02 00:06:47;;;;;;;4.50;2.22;;;;;;;12.94;37.58;100204.28;4957017;28;20428;-78
2022/02/02 00:09:29;;;;;;;6.75;2.55;;;;;;;12.60;36.52;100191.88;4958730;28;20042;-78
2022/02/02 00:15:31;;;;;;;4.35;2.90;;;;;;;12.66;36.72;100197.91;4956344;28;20050;-78
2022/02/02 00:21:07;;;;;;;8.35;3.45;;;;;;;12.68;37.92;100185.53;4959143;28;20415;-78
2022/02/02 00:24:01;;;;;;;12.00;3.55;;;;;;;12.68;38.04;100199.19;4957781;28;20094;-79
2022/02/02 00:26:47;;;;;;;11.68;3.95;;;;;;;12.73;38.20;100203.59;4960871;28;20050;-78
2022/02/02 00:29:37;;;;;;;9.77;3.92;;;;;;;12.76;36.29;100181.09;4957917;28;20050;-78
2022/02/02 00:35:09;;;;;;;;;;;;;;;12.40;36.97;100171.78;4959048;28;20416;-78
2022/02/02 00:37:53;;;;;;;5.25;2.83;;;;;;;12.54;37.25;100167.94;4958869;28;19914;-78
2022/02/02 00:40:38;;;;;;;11.68;4.60;;;;;;;12.48;34.26;100151.00;4957497;28;20050;-78
2022/02/02 00:43:23;;;;;;;4.80;2.95;;;;;;;12.51;35.77;100163.13;4961485;28;20038;-78
2022/02/02 00:46:07;;;;;;;;;;;;;;;12.65;39.36;100148.00;4956941;28;20058;-78
2022/02/02 00:48:59;;;;;;;7.38;3.92;;;;;;;12.60;35.98;100137.34;4957183;28;19922;-78
2022/02/02 00:51:48;;;;;;;9.00;4.00;;;;;;;12.67;37.88;100145.75;4960952;28;20066;-78
2022/02/02 00:54:32;;;;;;;7.20;3.28;;;;;;;12.79;40.55;100159.38;4958886;28;20055;-78
2022/02/02 00:57:17;;;;;;;7.18;4.32;;;;;;;12.71;38.53;100157.56;4938013;29;20051;-78
2022/02/02 01:00:03;;;;;;;5.15;3.08;;;;;;;12.70;38.69;100149.72;4941819;29;20054;-78
2022/02/02 01:02:48;;;;;;;7.50;3.35;;;;;;;12.77;39.20;100147.22;4937228;29;20047;-78
2022/02/02 01:05:33;;;;;;;6.25;3.63;;;;;;;12.81;40.39;100150.84;4942725;29;20050;-78
2022/02/02 01:08:42;;;;;;;9.73;4.15;;;;;;;12.79;38.99;100144.94;4960376;28;20074;-78
2022/02/02 01:20:51;;;;;;;9.48;4.25;;;;;;;12.61;38.89;100185.31;4942011;29;20054;-78
2022/02/02 01:29:42;;;;;;;8.27;4.68;;;;;;;12.64;39.78;100162.81;4958771;28;20046;-78
2022/02/02 01:32:27;;;;;;;8.32;3.78;;;;;;;12.69;38.90;100191.78;4956886;28;20058;-78
2022/02/02 01:35:17;;;;;;;8.73;4.82;;;;;;;12.68;37.73;100176.56;4958361;28;20058;-78
2022/02/02 01:38:03;;;;;;;9.98;4.78;;;;;;;12.69;39.32;100170.78;4958458;28;20420;-78
2022/02/02 01:40:53;;;;;;;9.00;4.75;;;;;;;12.63;37.77;100179.50;4957155;28;20050;-78
2022/02/02 01:43:46;;;;;;;13.25;5.45;;;;;;;12.68;38.98;100169.16;4959529;28;20408;-79
2022/02/02 01:46:33;;;;;;;16.98;5.45;;;;;;;12.67;39.96;100183.94;4958260;29;20046;-78
2022/02/02 01:55:19;;;;;;;12.93;5.97;;;;;;;12.57;35.17;100195.31;4960179;28;20428;-78
2022/02/02 01:58:47;;;;;;;10.88;5.25;;;;;;;12.49;35.01;100174.41;4958369;28;20535;-78
2022/02/02 02:01:14;;;;;;;11.73;5.82;;;;;;;12.43;34.92;100186.69;4958513;28;20050;-78
2022/02/02 02:03:59;;;;;;;11.50;5.30;;;;;;;12.35;37.04;100185.63;4959030;28;20042;-78
2022/02/02 02:06:45;;;;;;;11.95;4.15;;;;;;;12.46;40.01;100196.88;4963668;28;20058;-78
2022/02/02 02:09:30;;;;;;;6.78;3.58;;;;;;;12.34;36.49;100199.63;4962301;28;20523;-78
2022/02/02 02:12:15;;;;;;;13.68;5.18;;;;;;;12.30;37.14;100179.59;4960367;28;20062;-78
2022/02/02 02:15:04;;;;;;;11.55;4.10;;;;;;;12.18;35.19;100180.41;4957998;28;20051;-78
2022/02/02 02:17:50;;;;;;;9.68;5.95;;;;;;;12.25;36.94;100160.75;4953880;29;20411;-78
2022/02/02 02:20:36;;;;;;;11.77;5.72;;;;;;;12.19;35.03;100162.13;4959625;28;20050;-78
2022/02/02 02:23:21;;;;;;;8.10;4.45;;;;;;;12.25;35.79;100158.03;4963252;28;20511;-78
2022/02/02 02:26:07;;;;;;;16.10;5.47;;;;;;;12.18;32.79;100187.78;4958151;28;20054;-78
2022/02/02 02:30:03;;;;;;;20.23;6.55;;;;;;;12.13;35.09;100185.28;4959932;28;20058;-78
2022/02/02 02:56:52;;;;;;;17.90;5.28;;;;;;;12.02;37.99;100167.78;4961734;28;20054;-78
2022/02/02 02:59:46;;;;;;;14.88;4.70;;;;;;;11.99;39.38;100170.03;4958287;28;20058;-78
2022/02/02 03:03:14;;;;;;;5.97;3.67;;;;;;;12.01;37.23;100177.88;4957547;28;20046;-78
2022/02/02 03:30:41;;;;;;;10.85;4.45;;;;;;;11.58;35.79;100170.91;4961323;28;20050;-78
2022/02/02 03:51:46;;;;;;;13.18;5.28;;;;;;;11.38;38.07;100149.94;4959201;28;20050;-78
2022/02/02 04:06:05;;;;;;;10.10;5.22;;;;;;;11.45;40.07;100142.03;4957134;28;20042;-78
2022/02/02 04:08:50;;;;;;;11.05;4.57;;;;;;;11.41;39.65;100165.63;4957354;28;20518;-78
2022/02/02 04:11:45;;;;;;;7.07;4.10;;;;;;;11.42;40.51;100150.88;4961119;28;20050;-78
2022/02/02 04:39:08;;;;;;;13.30;6.70;;;;;;;11.02;38.06;100131.50;4959967;28;20050;-78
2022/02/02 04:54:29;;;;;;;13.70;6.70;;;;;;;11.18;42.09;100149.97;4963351;28;20054;-78
2022/02/02 05:03:39;;;;;;;13.90;7.20;;;;;;;10.99;39.25;100142.28;4936611;29;20050;-78
2022/02/02 05:06:28;;;;;;;14.10;7.93;;;;;;;10.97;40.04;100122.78;4935497;29;20055;-78
2022/02/02 05:42:54;;;;;;;10.73;6.05;;;;;;;10.80;41.01;100131.06;4947273;28;20042;-78
2022/02/02 05:45:24;;;;;;;;;;;;;;;10.87;42.73;100145.72;4948019;28;20400;-78
2022/02/02 05:54:06;;;;;;;18.33;8.52;;;;;;;10.66;41.76;100170.19;4955760;28;20412;-77
2022/02/02 05:56:54;;;;;;;15.02;7.05;;;;;;;10.80;43.90;100171.84;4952202;28;20050;-78
2022/02/02 05:59:41;;;;;;;13.13;7.88;;;;;;;10.77;40.39;100172.53;4953069;29;20531;-78
2022/02/02 06:02:31;;;;;;;21.02;7.13;;;;;;;10.88;43.90;100162.84;4957291;29;20551;-78
2022/02/02 06:05:16;;;;;;;16.88;8.40;;;;;;;10.88;43.97;100155.47;4954674;28;20093;-78
2022/02/02 06:08:02;;;;;;;11.95;5.88;;;;;;;10.88;43.39;100169.06;4957055;28;20054;-80
2022/02/02 06:10:49;;;;;;;22.88;8.90;;;;;;;10.69;41.95;100166.81;4956034;28;20063;-81
2022/02/02 06:13:44;;;;;;;15.48;6.43;;;;;;;10.56;44.05;100170.56;4952993;29;20054;-80
2022/02/02 06:16:29;;;;;;;17.05;6.85;;;;;;;10.70;43.03;100178.47;4959372;28;20519;-78
2022/02/02 06:19:14;;;;;;;;;;;;;;;10.68;44.44;100169.84;4952843;28;20055;-78
2022/02/02 06:22:01;;;;;;;31.08;10.80;;;;;;;10.71;40.38;100170.00;4946822;29;19922;-79
2022/02/02 06:25:01;;;;;;;20.77;9.70;;;;;;;10.20;39.96;100164.81;4947936;28;20031;-79
2022/02/02 06:27:56;;;;;;;21.52;9.25;;;;;;;10.12;39.64;100196.28;4953951;28;20054;-79
2022/02/02 06:30:44;;;;;;;24.05;9.98;;;;;;;9.94;38.60;100188.53;4950018;29;20620;-78
2022/02/02 06:33:35;;;;;;;21.33;8.85;;;;;;;9.95;39.96;100209.94;4958627;28;20132;-78
2022/02/02 06:36:20;;;;;;;19.85;7.68;;;;;;;10.01;43.36;100227.63;4958652;28;20050;-79
2022/02/02 06:39:07;;;;;;;17.35;6.45;;;;;;;10.08;45.06;100199.97;4959827;28;20058;-78
2022/02/02 06:41:56;;;;;;;18.50;7.10;;;;;;;10.24;46.78;100220.91;4956629;28;20038;-79
2022/02/02 06:44:42;;;;;;;29.08;9.80;;;;;;;10.25;46.26;100218.97;4951487;28;20050;-79
2022/02/02 06:47:27;;;;;;;28.77;8.07;;;;;;;10.32;46.83;100227.41;4958049;28;20066;-79
2022/02/02 06:50:51;;;;;;;26.27;9.23;;;;;;;10.28;45.91;100227.28;4959155;28;20055;-78
2022/02/02 06:53:33;;;;;;;23.25;9.38;;;;;;;10.42;47.16;100237.13;4957698;28;20535;-78
2022/02/02 06:56:33;;;;;;;21.15;6.95;;;;;;;10.40;47.67;100239.41;4955872;29;20066;-79
2022/02/02 07:08:36;;;;;;;20.88;7.03;;;;;;;10.46;48.21;100281.59;4958841;28;20047;-78
2022/02/02 07:11:53;;;;;;;22.10;7.65;;;;;;;10.44;48.42;100273.75;4961382;28;20062;-78
2022/02/02 07:21:22;;;;;;;38.90;11.05;;;;;;;10.28;47.43;100275.38;4940151;29;20051;-78
2022/02/02 07:30:23;;;;;;;24.98;11.60;;;;;;;10.27;48.55;100279.22;4944318;29;20046;-78
2022/02/02 07:33:14;;;;;;;25.50;9.82;;;;;;;10.35;49.90;100291.22;4944928;29;20039;-78
2022/02/02 07:36:09;;;;;;;14.05;6.55;;;;;;;10.47;51.75;100305.72;4942742;29;20066;-78
2022/02/02 07:38:59;;;;;;;24.02;7.72;;;;;;;10.45;51.40;100293.56;4943434;29;20051;-78
2022/02/02 07:41:47;;;;;;;19.83;8.65;;;;;;;10.40;51.20;100280.16;4941467;29;20056;-79
2022/02/02 07:44:38;;;;;;;24.85;9.85;;;;;;;10.36;50.06;100290.09;4943662;29;20047;-78
2022/02/02 07:47:24;;;;;;;19.23;6.85;;;;;;;10.44;52.26;100306.38;4941498;29;20055;-79
2022/02/02 07:50:11;;;;;;;24.90;10.50;;;;;;;10.46;52.01;100311.50;4939843;29;20076;-78
2022/02/02 07:53:03;;;;;;;27.27;9.90;;;;;;;10.41;49.33;100306.22;4947589;28;20048;-79
2022/02/02 07:55:49;;;;;;;17.75;7.22;;;;;;;10.41;50.63;100320.63;4953426;28;20058;-79
2022/02/02 07:58:37;;;;;;;22.10;5.90;;;;;;;10.44;52.48;100311.81;4963495;28;20054;-79
2022/02/02 08:01:22;;;;;;;29.40;9.40;;;;;;;10.34;51.28;100297.75;4951665;28;20516;-78
2022/02/02 08:04:07;;;;;;;11.70;4.38;;;;;;;10.49;53.86;100297.25;4948296;28;20054;-79
2022/02/02 08:06:54;;;;;;;;;;;;;;;10.59;54.05;100321.34;4954829;28;20046;-79
2022/02/02 08:09:45;;;;;;;10.80;4.60;;;;;;;10.51;54.03;100300.44;4947895;28;19914;-80
2022/02/02 08:12:40;;;;;;;18.58;8.60;;;;;;;10.53;53.04;100309.06;4960315;28;20051;-78
2022/02/02 08:15:30;;;;;;;37.65;12.60;;;;;;;10.48;50.57;100309.22;4955872;28;20046;-79
2022/02/02 08:18:14;;;;;;;33.97;15.07;;;;;;;9.81;48.73;100304.34;4959966;28;20051;-79
2022/02/02 08:20:59;;;;;;;31.20;11.43;;;;;;;9.99;50.24;100327.66;4954201;29;20050;-79
2022/02/02 08:23:45;;;;;;;25.25;9.32;;;;;;;9.99;51.54;100321.44;4951654;28;20054;-79
2022/02/02 08:26:31;;;;;;;29.98;9.60;;;;;;;10.23;53.04;100291.88;4960612;28;20259;-79
2022/02/02 08:29:16;;;;;;;21.92;9.68;;;;;;;10.29;53.45;100293.28;4955990;28;20174;-78
2022/02/02 08:32:03;;;;;;;13.32;4.63;;;;;;;10.41;55.04;100298.06;4954464;28;20054;-78
2022/02/02 08:34:50;;;;;;;26.63;13.60;;;;;;;10.23;50.37;100294.59;4950539;28;20050;-79
2022/02/02 08:37:38;;;;;;;28.15;11.38;;;;;;;9.80;51.27;100297.34;4949312;28;20039;-79
2022/02/02 08:40:37;;;;;;;32.60;13.30;;;;;;;9.60;52.17;100281.69;4960139;28;20110;-80
2022/02/02 08:46:17;;;;;;;22.92;10.85;;;;;;;9.81;52.38;100315.19;4948133;28;20070;-79
2022/02/02 08:49:07;;;;;;;23.70;8.85;;;;;;;9.97;54.06;100310.88;4950295;28;20523;-78
2022/02/02 08:51:52;;;;;;;22.38;9.35;;;;;;;10.09;54.70;100310.25;4953369;28;20059;-78
2022/02/02 08:54:47;;;;;;;22.25;6.85;;;;;;;10.24;55.96;100313.28;4945196;28;20485;-79
2022/02/02 09:00:24;;;;;;;20.70;10.00;;;;;;;9.97;54.52;100323.66;4953300;28;20501;-78
2022/02/02 09:06:12;;;;;;;23.70;11.27;;;;;;;10.00;51.71;100306.75;4951472;28;20058;-78
2022/02/02 09:09:10;;;;;;;21.92;10.48;;;;;;;9.99;51.79;100308.66;4949149;28;20054;-79
2022/02/02 09:36:06;;;;;;;17.90;9.80;;;;;;;9.99;47.69;100326.88;4942057;28;20062;-78
2022/02/02 09:38:54;;;;;;;20.00;10.55;;;;;;;9.99;46.56;100335.03;4952902;28;20046;-79
2022/02/02 09:41:45;;;;;;;22.08;10.82;;;;;;;10.08;47.69;100347.47;4952195;28;20519;-79
2022/02/02 09:44:36;;;;;;;101.05;15.73;;;;;;;10.14;47.55;100342.69;4949655;28;20519;-79
2022/02/02 09:47:27;;;;;;;17.92;8.75;;;;;;;10.20;45.57;100336.81;4957401;28;20031;-79
2022/02/02 09:50:21;;;;;;;16.92;7.57;;;;;;;10.13;47.10;100333.72;4952061;28;20108;-79
2022/02/02 09:53:08;;;;;;;12.82;6.80;;;;;;;10.22;47.98;100342.69;4958922;28;20047;-79
2022/02/02 09:56:09;;;;;;;19.50;8.18;;;;;;;10.17;45.97;100336.63;4954375;28;20050;-79
2022/02/02 09:59:01;;;;;;;17.65;6.93;;;;;;;10.25;47.77;100335.84;4957086;28;20054;-79
2022/02/02 10:05:15;;;;;;;15.43;8.70;;;;;;;10.27;45.42;100363.47;4958484;28;20054;-79
2022/02/02 10:11:46;;;;;;;11.77;5.72;;;;;;;10.20;46.25;100350.38;4956234;28;20046;-79
2022/02/02 10:14:14;;;;;;;14.50;7.35;;;;;;;10.32;45.98;100357.84;4953517;28;20063;-78
2022/02/02 10:17:06;;;;;;;13.48;6.75;;;;;;;10.31;48.36;100355.47;4959420;28;20058;-79
2022/02/02 10:19:50;;;;;;;10.77;5.80;;;;;;;10.33;48.95;100343.16;4956112;29;20062;-80
2022/02/02 10:22:46;;;;;;;7.63;4.32;;;;;;;10.37;47.86;100318.84;4965019;28;20054;-80
2022/02/02 10:25:38;;;;;;;13.15;7.72;;;;;;;10.43;47.05;100328.44;4961989;28;20042;-79
2022/02/02 10:28:23;;;;;;;12.13;6.88;;;;;;;10.51;48.28;100343.94;4960987;28;20062;-79
2022/02/02 10:31:09;;;;;;;11.40;6.03;;;;;;;10.56;47.54;100341.03;4964682;28;20061;-79
2022/02/02 10:34:12;;;;;;;11.00;6.25;;;;;;;10.64;46.71;100351.09;4962936;28;20054;-79
2022/02/02 10:37:28;;;;;;;14.05;5.43;;;;;;;10.67;48.78;100339.53;4966661;28;20054;-79
2022/02/02 10:40:13;;;;;;;9.40;4.45;;;;;;;10.60;50.85;100348.22;4963328;28;20432;-79
2022/02/02 10:42:58;;;;;;;8.52;4.40;;;;;;;10.59;50.28;100341.19;4953866;28;20059;-79
2022/02/02 10:45:43;;;;;;;7.93;4.40;;;;;;;10.78;50.95;100337.28;4955177;28;20062;-81
2022/02/02 10:48:37;;;;;;;8.18;3.55;;;;;;;10.88;51.64;100336.91;4962709;28;20067;-80
2022/02/02 10:58:00;;;;;;;12.50;5.18;;;;;;;10.99;53.02;100343.59;4945200;28;20054;-81
2022/02/02 11:06:49;;;;;;;10.25;3.85;;;;;;;11.27;53.96;100308.56;4951129;28;20527;-80
2022/02/02 11:09:35;;;;;;;10.13;4.05;;;;;;;11.37;54.98;100305.47;4956551;28;20054;-81
2022/02/02 11:12:25;;;;;;;8.48;4.50;;;;;;;11.38;53.47;100304.31;4953106;28;20042;-80
2022/02/02 11:15:36;;;;;;;9.23;4.80;;;;;;;11.32;53.42;100309.19;4957145;28;20058;-81
2022/02/02 11:18:34;;;;;;;16.40;6.18;;;;;;;11.20;50.69;100290.03;4951184;28;20411;-82
2022/02/02 11:21:30;;;;;;;19.50;6.28;;;;;;;11.31;52.35;100295.88;4957994;28;20415;-81
2022/02/02 11:24:18;;;;;;;12.52;5.30;;;;;;;11.40;53.45;100296.63;4961864;28;20073;-82
2022/02/02 11:27:02;;;;;;;13.27;6.07;;;;;;;11.47;53.34;100286.03;4965872;28;20058;-83
2022/02/02 11:29:47;;;;;;;8.27;3.80;;;;;;;11.51;53.61;100270.59;4958007;28;20047;-83
2022/02/02 11:32:56;;;;;;;11.43;4.38;;;;;;;11.69;53.14;100271.25;4953607;28;20058;-81
2022/02/02 11:38:28;;;;;;;10.25;4.88;;;;;;;11.66;52.55;100263.75;4947954;28;20063;-81
2022/02/02 11:50:04;;;;;;;30.80;14.32;;;;;;;11.85;50.48;100275.78;4946235;29;20055;-82
2022/02/02 11:52:49;;;;;;;28.33;11.25;;;;;;;11.89;51.50;100268.53;4944395;29;20047;-80
2022/02/02 11:55:43;;;;;;;20.80;9.80;;;;;;;11.88;50.27;100261.53;4941985;29;20412;-80
2022/02/02 11:58:32;;;;;;;11.25;6.32;;;;;;;11.90;52.55;100270.13;4946092;29;20050;-78
2022/02/02 12:01:37;;;;;;;19.33;8.90;;;;;;;11.94;49.96;100264.81;4951370;28;20058;-78
2022/02/02 12:04:35;;;;;;;19.15;6.97;;;;;;;11.94;51.93;100276.50;4958782;28;20057;-79
2022/02/02 12:07:54;;;;;;;13.70;5.78;;;;;;;12.01;52.11;100275.97;4961988;28;20115;-79
2022/02/02 12:10:51;;;;;;;25.08;9.30;;;;;;;12.16;48.49;100274.53;4959177;28;20050;-79
2022/02/02 12:56:17;;;;;;;15.43;7.35;;;;;;;13.54;39.75;100255.25;4940301;29;20047;-80
2022/02/02 13:02:21;;;;;;;16.80;6.85;;;;;;;13.89;39.43;100241.78;4959764;28;20066;-79
2022/02/02 13:05:08;;;;;;;15.18;6.45;;;;;;;14.27;38.64;100243.19;4960635;28;20058;-79
2022/02/02 13:07:55;;;;;;;16.60;7.43;;;;;;;16.10;36.43;100252.06;4962205;28;20058;-80
2022/02/02 13:10:40;;;;;;;12.02;6.85;;;;;;;23.33;23.96;100261.63;4957444;28;20054;-78
2022/02/02 13:13:28;;;;;;;;;;;;;;;25.13;21.55;100269.44;4953895;28;20471;-80
2022/02/02 13:16:21;;;;;;;17.73;7.47;;;;;;;27.53;18.72;100270.78;4954082;28;19918;-79
2022/02/02 13:19:27;;;;;;;11.15;7.32;;;;;;;29.31;17.07;100277.22;4953285;29;20087;-79
2022/02/02 13:22:13;;;;;;;12.13;6.60;;;;;;;28.69;17.28;100276.13;4960740;28;20050;-80
2022/02/02 13:25:01;;;;;;;11.20;5.97;;;;;;;27.76;17.79;100275.34;4940594;29;20046;-80
2022/02/02 13:27:48;;;;;;;11.02;6.43;;;;;;;29.26;16.24;100274.97;4951918;28;20050;-79
2022/02/02 13:30:44;;;;;;;11.30;6.60;;;;;;;29.52;16.18;100270.09;4962486;28;20054;-79
2022/02/02 13:33:37;;;;;;;12.45;6.45;;;;;;;30.04;15.76;100269.38;4960558;28;20046;-81
2022/02/02 13:37:20;;;;;;;12.52;7.45;;;;;;;31.95;13.92;100272.50;4958634;28;20054;-79
2022/02/02 13:43:01;;;;;;;;;;;;;;;29.49;16.07;100249.38;4956126;28;20416;-79
2022/02/02 13:49:33;;;;;;;17.02;6.82;;;;;;;29.06;16.35;100252.09;4947383;29;20179;-77
2022/02/02 13:52:36;;;;;;;11.75;7.28;;;;;;;28.28;16.24;100263.03;4951903;28;20058;-76
2022/02/02 13:55:45;;;;;;;13.57;7.57;;;;;;;27.90;17.47;100266.53;4955188;29;20420;-78
2022/02/02 13:58:46;;;;;;;15.00;7.20;;;;;;;28.80;17.17;100271.75;4951137;28;20298;-78
2022/02/02 14:10:42;;;;;;;15.57;6.88;;;;;;;26.29;18.66;100267.53;4943444;28;20420;-77
2022/02/02 14:31:45;;;;;;;11.93;6.65;;;;;;;24.92;21.37;100302.41;4945744;28;20055;-77
2022/02/02 14:34:30;;;;;;;11.23;6.82;;;;;;;24.85;21.42;100294.16;4951429;29;20047;-77
2022/02/02 14:37:18;;;;;;;111.85;11.52;;;;;;;25.69;20.46;100299.47;4954047;29;20414;-77
2022/02/02 14:40:18;;;;;;;10.88;6.32;;;;;;;24.12;22.48;100303.16;4942536;29;20051;-77
2022/02/02 14:43:05;;;;;;;26.35;7.20;;;;;;;23.27;22.98;100284.66;4949509;29;20051;-77
2022/02/02 14:45:54;;;;;;;20.25;7.30;;;;;;;22.41;23.90;100279.00;4947324;28;20047;-77
2022/02/02 14:48:47;;;;;;;11.20;5.68;;;;;;;21.54;26.64;100294.81;4942461;29;20523;-77
2022/02/02 15:25:31;;;;;;;14.98;6.93;;;;;;;19.78;28.44;100316.28;4953151;28;20080;-76
2022/02/02 15:28:09;;;;;;;15.30;8.00;;;;;;;19.37;29.22;100312.06;4948225;28;20535;-77
2022/02/02 15:31:04;;;;;;;13.73;7.50;;;;;;;19.18;29.90;100329.69;4956870;28;20515;-80
2022/02/02 15:33:52;;;;;;;12.55;7.93;;;;;;;19.05;30.23;100328.38;4954232;28;20050;-75
2022/02/02 15:39:35;;;;;;;12.23;7.47;;;;;;;18.66;30.68;100323.34;4959043;28;20070;-76
2022/02/02 15:42:36;;;;;;;14.10;7.90;;;;;;;18.58;30.73;100320.91;4956367;28;20054;-75
2022/02/02 16:03:11;;;;;;;16.05;7.32;;;;;;;15.26;37.13;100347.75;4951802;28;20051;-77
2022/02/02 16:06:06;;;;;;;14.30;8.73;;;;;;;15.19;37.28;100355.81;4949784;28;20050;-76
2022/02/02 16:09:01;;;;;;;17.08;7.95;;;;;;;15.06;37.48;100359.78;4958656;28;20042;-76
2022/02/02 16:11:53;;;;;;;15.98;7.90;;;;;;;14.76;38.02;100364.09;4956362;28;20058;-75
2022/02/02 16:14:48;;;;;;;40.90;10.35;;;;;;;14.48;39.10;100370.41;4959506;28;20046;-76
2022/02/02 16:35:48;;;;;;;17.75;8.82;;;;;;;13.77;40.92;100419.47;4948885;28;20062;-76
2022/02/02 16:38:26;;;;;;;24.48;9.85;;;;;;;13.49;41.20;100419.41;4954795;28;20051;-77
2022/02/02 16:43:06;;;;;;;22.25;9.43;;;;;;;13.27;42.01;100404.25;4956296;28;20066;-75
2022/02/02 16:44:15;;;;;;;19.60;9.85;;;;;;;13.24;41.63;100421.31;4959435;28;20055;-76
2022/02/02 16:47:01;;;;;;;18.00;7.70;;;;;;;13.26;41.59;100435.41;4955491;28;20542;-76
2022/02/02 16:49:45;;;;;;;;;;;;;;;13.08;41.85;100447.66;4954909;28;20054;-75
2022/02/02 16:52:34;;;;;;;47.38;20.23;;;;;;;12.83;42.90;100454.97;4958539;28;19914;-75
2022/02/02 16:55:36;;;;;;;26.25;13.75;;;;;;;12.75;42.96;100457.78;4951014;28;20047;-75
2022/02/02 17:24:21;;;;;;;18.55;10.45;;;;;;;12.86;42.65;100458.97;4956324;28;20503;-74
2022/02/02 17:44:06;;;;;;;14.93;6.07;;;;;;;15.07;44.97;100497.53;4948526;28;20043;-76
2022/02/02 18:20:02;;;;;;;37.13;12.65;;;;;;;14.89;39.24;100518.94;4950848;28;20035;-76
2022/02/02 18:22:55;;;;;;;27.52;12.43;;;;;;;14.79;40.03;100527.63;4954224;28;20051;-75
2022/02/02 18:29:01;;;;;;;37.00;11.10;;;;;;;14.61;40.57;100545.50;4950087;28;20035;-76
2022/02/02 18:46:29;;;;;;;26.65;11.15;;;;;;;14.34;41.14;100564.22;4948006;28;20069;-75
2022/02/02 19:55:31;;;;;;;19.10;9.63;;;;;;;14.67;42.27;100692.72;4944988;29;20452;-77
2022/02/02 20:13:46;;;;;;;32.47;14.40;;;;;;;14.54;39.49;100707.53;4952549;28;19918;-80
2022/02/02 20:16:32;;;;;;;41.00;14.57;;;;;;;14.43;41.36;100712.66;4955304;28;20039;-81
2022/02/02 20:19:18;;;;;;;35.13;13.55;;;;;;;14.49;43.67;100713.22;4954564;28;21485;-81
2022/02/02 20:22:04;;;;;;;33.38;15.77;;;;;;;14.22;41.32;100711.91;4959950;28;20051;-81
2022/02/02 20:24:58;;;;;;;37.92;16.15;;;;;;;14.26;41.63;100710.09;4957203;28;20040;-80
2022/02/02 20:27:52;;;;;;;36.60;15.40;;;;;;;14.35;41.99;100720.94;4962860;28;20043;-80
2022/02/02 20:30:38;;;;;;;32.13;13.70;;;;;;;14.45;41.84;100721.31;4957857;28;20035;-82
2022/02/02 20:33:23;;;;;;;39.13;14.27;;;;;;;14.27;40.63;100725.38;4949557;28;20047;-82
2022/02/02 20:36:09;;;;;;;;;;;;;;;14.38;39.17;100726.56;4958996;28;20043;-82
2022/02/02 20:38:54;;;;;;;25.77;12.52;;;;;;;14.27;40.25;100730.06;4963208;28;19914;-82
2022/02/02 20:41:41;;;;;;;22.88;7.65;;;;;;;14.40;45.42;100732.50;4962368;28;20411;-81
2022/02/02 20:44:43;;;;;;;25.20;9.75;;;;;;;14.43;45.24;100745.47;4965973;28;21682;-82
2022/02/02 21:11:16;;;;;;;35.85;15.05;;;;;;;14.39;42.60;100785.59;4959336;28;20043;-80
2022/02/02 21:14:01;;;;;;;;;;;;;;;14.17;43.93;100788.69;4951658;29;20055;-81
2022/02/02 21:16:47;;;;;;;31.27;14.00;;;;;;;14.03;42.85;100789.00;4961373;28;19918;-80
2022/02/02 21:19:51;;;;;;;35.30;12.75;;;;;;;14.21;42.99;100775.97;4959865;28;20286;-77
2022/02/02 21:22:47;;;;;;;34.78;16.27;;;;;;;14.45;45.22;100787.00;4960395;28;20042;-81
2022/02/02 21:26:22;;;;;;;29.70;14.05;;;;;;;14.51;45.75;100791.13;4958416;28;20051;-81
2022/02/02 21:28:40;;;;;;;29.40;15.25;;;;;;;14.49;44.76;100801.59;4955832;28;20047;-79
2022/02/02 21:31:26;;;;;;;32.13;15.30;;;;;;;14.12;41.37;100789.72;4953064;28;20042;-80
2022/02/02 21:34:10;;;;;;;20.58;12.05;;;;;;;14.21;44.08;100791.59;4953388;28;20051;-79
2022/02/02 21:37:00;;;;;;;;;;;;;;;14.18;42.67;100787.56;4955331;28;20047;-79
2022/02/02 21:39:55;;;;;;;32.28;16.05;;;;;;;14.05;43.68;100805.09;4950071;28;19915;-81
2022/02/02 21:42:40;;;;;;;29.88;15.90;;;;;;;13.98;42.27;100800.16;4957743;29;20047;-80
2022/02/02 21:45:26;;;;;;;;;;;;;;;14.03;42.15;100807.34;4960444;28;20047;-80
2022/02/02 21:48:12;;;;;;;30.35;15.32;;;;;;;14.25;44.73;100801.50;4959539;28;19922;-81
2022/02/02 21:51:02;;;;;;;23.85;10.85;;;;;;;14.33;44.07;100805.28;4954573;28;20427;-78
2022/02/02 21:53:47;;;;;;;24.80;14.98;;;;;;;13.96;41.73;100796.16;4956221;28;20051;-81
2022/02/02 21:56:32;;;;;;;28.00;11.55;;;;;;;14.27;45.48;100799.25;4954464;28;20047;-81
2022/02/02 21:59:17;;;;;;;;;;;;;;;14.44;44.90;100809.22;4947324;28;20031;-81
2022/02/02 22:02:02;;;;;;;34.90;13.40;;;;;;;14.18;42.71;100800.44;4955969;28;20335;-79
2022/02/02 22:04:47;;;;;;;;;;;;;;;14.34;45.69;100810.41;4951830;28;20039;-79
2022/02/02 22:07:32;;;;;;;26.33;13.52;;;;;;;14.29;43.62;100813.38;4956774;28;19914;-79
2022/02/02 22:10:19;;;;;;;19.88;11.80;;;;;;;14.37;42.17;100812.53;4958011;28;20039;-80
2022/02/02 22:13:05;;;;;;;25.08;12.73;;;;;;;14.36;43.03;100805.44;4960076;28;20047;-80
2022/02/02 22:15:54;;;;;;;27.98;13.68;;;;;;;14.35;42.35;100813.94;4958784;28;20508;-80
2022/02/02 22:18:40;;;;;;;27.27;12.95;;;;;;;14.15;41.01;100804.66;4954931;28;20039;-80
2022/02/02 22:21:25;;;;;;;24.02;12.02;;;;;;;14.17;41.54;100802.38;4960319;28;20047;-80
2022/02/02 22:24:11;;;;;;;22.77;12.85;;;;;;;14.17;43.04;100812.53;4954134;29;20051;-80
2022/02/02 22:26:57;;;;;;;28.27;13.98;;;;;;;14.06;41.81;100809.44;4961146;28;20043;-80
2022/02/02 22:29:41;;;;;;;26.95;13.95;;;;;;;14.06;42.04;100814.88;4962231;28;20043;-80
2022/02/02 22:32:26;;;;;;;18.00;9.00;;;;;;;13.93;40.97;100813.22;4956664;28;20036;-80
2022/02/02 22:35:11;;;;;;;;;;;;;;;13.89;39.26;100815.03;4962081;28;20515;-80
2022/02/02 22:37:55;;;;;;;20.00;11.60;;;;;;;13.73;40.24;100828.50;4962076;28;19919;-79
2022/02/02 22:40:41;;;;;;;;;;;;;;;13.85;41.94;100825.03;4957951;28;20035;-80
2022/02/02 22:43:32;;;;;;;24.50;13.33;;;;;;;14.03;43.67;100834.69;4968073;28;19914;-82
2022/02/02 22:46:22;;;;;;;16.05;9.60;;;;;;;14.15;45.71;100834.75;4962286;29;20051;-82
2022/02/02 22:49:07;;;;;;;20.35;11.40;;;;;;;14.20;45.47;100839.19;4962532;28;20805;-81
2022/02/02 22:51:52;;;;;;;;;;;;;;;14.23;45.12;100833.84;4967958;28;20035;-81
2022/02/02 22:54:40;;;;;;;20.80;10.32;;;;;;;14.32;46.39;100831.06;4962192;28;19915;-82
2022/02/02 22:57:24;;;;;;;17.67;7.47;;;;;;;14.37;47.18;100833.59;4965961;28;20455;-82
2022/02/02 23:00:14;;;;;;;17.40;9.98;;;;;;;14.40;44.97;100822.78;4976313;28;20050;-81
2022/02/02 23:03:03;;;;;;;32.40;9.25;;;;;;;14.46;48.06;100835.13;4970298;28;20046;-82
2022/02/02 23:05:53;;;;;;;21.17;8.45;;;;;;;14.25;48.28;100828.84;4962607;28;20062;-82
2022/02/02 23:08:38;;;;;;;18.92;10.38;;;;;;;14.42;48.32;100836.94;4961177;28;20499;-83
2022/02/02 23:11:23;;;;;;;15.48;8.32;;;;;;;14.29;43.91;100845.38;4968728;28;20043;-81
2022/02/02 23:14:09;;;;;;;23.80;8.55;;;;;;;14.38;46.75;100841.47;4968303;28;20043;-82
2022/02/02 23:16:55;;;;;;;18.40;10.07;;;;;;;14.37;45.11;100842.63;4963014;28;20046;-82
2022/02/02 23:19:44;;;;;;;17.73;10.30;;;;;;;14.28;44.42;100841.84;4966574;28;20055;-82
2022/02/02 23:22:32;;;;;;;14.20;7.18;;;;;;;14.40;47.15;100847.41;4961654;28;20034;-82
2022/02/02 23:25:20;;;;;;;16.00;7.95;;;;;;;14.22;46.76;100853.34;4967134;28;20054;-82
2022/02/02 23:28:05;;;;;;;20.52;10.35;;;;;;;14.13;43.22;100862.41;4972470;28;20042;-82
2022/02/02 23:30:50;;;;;;;17.55;10.25;;;;;;;13.61;38.14;100840.16;4969636;28;20043;-82
2022/02/02 23:33:35;;;;;;;;;;;;;;;13.80;38.16;100852.56;4967793;28;20586;-82
2022/02/02 23:36:21;;;;;;;24.20;9.75;;;;;;;13.65;41.05;100854.78;4968188;28;19914;-82